createdAt,value
2023-04-12T00:01:56.460Z,58.5
2023-04-12T00:07:49.292Z,58.5
2023-04-12T00:13:40.510Z,58.4
2023-04-12T00:19:17.614Z,58.3
2023-04-12T00:25:08.681Z,58.3
2023-04-12T00:30:59.807Z,58.3
2023-04-12T00:36:51.884Z,58.2
2023-04-12T00:42:27.655Z,58.1
2023-04-12T00:48:03.851Z,58.1
2023-04-12T00:53:40.045Z,58.1
2023-04-12T00:59:15.817Z,58
2023-04-12T01:04:53.176Z,57.9
2023-04-12T01:10:45.307Z,57.9
2023-04-12T01:16:36.421Z,57.9
2023-04-12T01:22:12.420Z,57.8
2023-04-12T01:33:08.549Z,57.7
2023-04-12T01:38:44.901Z,57.6
2023-04-12T01:44:21.040Z,57.6
2023-04-12T01:49:56.767Z,57.6
2023-04-12T01:55:33.231Z,57.5
2023-04-12T02:01:11.327Z,57.4
2023-04-12T02:06:49.399Z,57.4
2023-04-12T02:12:25.588Z,57.4
2023-04-12T02:18:02.471Z,57.3
2023-04-12T02:23:37.357Z,57.3
2023-04-12T02:29:12.864Z,57.2
2023-04-12T02:34:18.396Z,57.2
2023-04-12T02:39:53.827Z,57.1
2023-04-12T02:45:15.145Z,57.1
2023-04-12T02:50:37.617Z,57
2023-04-12T02:56:13.706Z,56.9
2023-04-12T03:01:49.958Z,56.9
2023-04-12T03:07:28.117Z,56.9
2023-04-12T03:13:03.733Z,56.9
2023-04-12T03:18:40.432Z,56.8
2023-04-12T03:24:16.765Z,56.8
2023-04-12T03:29:52.307Z,56.7
2023-04-12T03:35:28.412Z,56.6
2023-04-12T03:41:05.104Z,56.6
2023-04-12T03:46:43.864Z,56.6
2023-04-12T03:52:32.565Z,56.5
2023-04-12T03:58:09.668Z,56.4
2023-04-12T04:03:46.623Z,56.4
2023-04-12T04:09:24.877Z,56.4
2023-04-12T04:15:01.684Z,56.3
2023-04-12T04:20:37.222Z,56.3
2023-04-12T04:25:58.111Z,56.2
2023-04-12T04:31:34.733Z,56.2
2023-04-12T04:37:10.076Z,56.1
2023-04-12T04:42:46.502Z,56.1
2023-04-12T04:48:22.781Z,56
2023-04-12T04:53:58.219Z,55.9
2023-04-12T04:59:37.710Z,55.9
2023-04-12T05:05:16.987Z,55.8
2023-04-12T05:11:08.647Z,55.8
2023-04-12T05:17:06.563Z,55.8
2023-04-12T05:22:43.139Z,55.7
2023-04-12T05:28:18.834Z,55.6
2023-04-12T05:33:54.589Z,55.6
2023-04-12T05:39:30.349Z,55.5
2023-04-12T05:45:06.464Z,55.4
2023-04-12T05:50:42.872Z,55.4
2023-04-12T05:56:28.288Z,55.4
2023-04-12T06:02:05.300Z,55.3
2023-04-12T06:07:57.934Z,55.3
2023-04-12T06:13:33.875Z,55.2
2023-04-12T06:19:09.842Z,55.2
2023-04-12T06:24:45.933Z,55.1
2023-04-12T06:30:21.876Z,55.1
2023-04-12T06:35:58.459Z,55
2023-04-12T06:41:34.634Z,55
2023-04-12T06:47:11.060Z,54.9
2023-04-12T06:52:47.942Z,54.9
2023-04-12T06:57:53.617Z,54.8
2023-04-12T07:03:32.557Z,54.8
2023-04-12T07:09:02.800Z,54.8
2023-04-12T07:14:33.960Z,54.7
2023-04-12T07:20:11.628Z,54.6
2023-04-12T07:25:31.674Z,54.6
2023-04-12T07:31:08.058Z,54.6
2023-04-12T07:37:01.499Z,54.5
2023-04-12T07:42:39.198Z,54.4
2023-04-12T07:48:03.841Z,54.4
2023-04-12T07:53:40.773Z,54.4
2023-04-12T07:59:18.509Z,54.3
2023-04-12T08:04:59.225Z,54.3
2023-04-12T08:10:36.408Z,54.2
2023-04-12T08:16:12.723Z,54.2
2023-04-12T08:21:49.250Z,54.1
2023-04-12T08:27:26.313Z,54.1
2023-04-12T08:33:02.624Z,54
2023-04-12T08:39:09.930Z,54
2023-04-12T08:45:03.738Z,53.9
2023-04-12T08:50:54.839Z,53.9
2023-04-12T08:56:46.764Z,53.8
2023-04-12T09:02:39.926Z,53.8
2023-04-12T09:08:19.236Z,53.7
2023-04-12T09:13:58.590Z,53.6
2023-04-12T09:19:36.034Z,53.6
2023-04-12T09:25:26.958Z,53.5
2023-04-12T09:31:18.496Z,53.4
2023-04-12T09:36:56.289Z,53.6
2023-04-12T09:43:05.522Z,54.3
2023-04-12T09:48:58.313Z,54.9
2023-04-12T09:54:50.948Z,55.6
2023-04-12T10:00:43.930Z,56.4
2023-04-12T10:06:40.521Z,57.1
2023-04-12T10:18:14.487Z,58.4
2023-04-12T10:24:09.693Z,59.1
2023-04-12T10:30:02.183Z,59.8
2023-04-12T10:35:54.230Z,60.4
2023-04-12T10:41:46.632Z,61.1
2023-04-12T10:47:38.684Z,61.7
2023-04-12T10:53:30.422Z,62.3
2023-04-12T10:59:27.156Z,62.8
2023-04-12T11:05:11.767Z,63.3
2023-04-12T11:11:15.062Z,63.8
2023-04-12T11:17:07.710Z,64.3
2023-04-12T11:23:00.829Z,64.7
2023-04-12T11:28:49.541Z,65.1
2023-04-12T11:34:42.079Z,65.5
2023-04-12T11:40:35.897Z,65.8
2023-04-12T11:46:41.666Z,66
2023-04-12T11:52:46.847Z,66
2023-04-12T11:58:23.761Z,66
2023-04-12T12:04:34.704Z,66.5
2023-04-12T12:10:44.115Z,66.7
2023-04-12T12:16:44.762Z,66.6
2023-04-12T12:22:36.391Z,66.6
2023-04-12T12:28:43.847Z,66.6
2023-04-12T12:34:54.124Z,66.5
2023-04-12T12:40:50.685Z,66.6
2023-04-12T12:47:03.275Z,66.6
2023-04-12T12:52:59.363Z,66.6
2023-04-12T12:59:07.967Z,66.6
2023-04-12T13:05:04.022Z,66.6
2023-04-12T13:10:57.168Z,66.5
2023-04-12T13:17:01.916Z,66.4
2023-04-12T13:22:56.011Z,66.4
2023-04-12T13:28:48.257Z,66.4
2023-04-12T13:34:28.039Z,66.3
2023-04-12T13:40:22.436Z,66.3
2023-04-12T13:46:14.255Z,66.2
2023-04-12T13:52:07.580Z,66.1
2023-04-12T13:57:59.719Z,66.1
2023-04-12T14:03:55.289Z,66
2023-04-12T14:09:47.140Z,66
2023-04-12T14:15:24.391Z,65.9
2023-04-12T14:21:17.504Z,65.9
2023-04-12T14:27:09.319Z,65.8
2023-04-12T14:33:03.554Z,65.8
2023-04-12T14:38:55.632Z,65.7
2023-04-12T14:44:50.291Z,65.6
2023-04-12T14:50:41.775Z,65.6
2023-04-12T14:56:38.919Z,65.6
2023-04-12T15:02:33.882Z,65.5
2023-04-12T15:08:28.192Z,65.4
2023-04-12T15:14:23.764Z,65.4
2023-04-12T15:20:24.656Z,65.3
2023-04-12T15:26:16.553Z,65.3
2023-04-12T15:32:09.262Z,65.2
2023-04-12T15:37:47.015Z,65.1
2023-04-12T15:43:41.963Z,65.1
2023-04-12T15:49:44.996Z,65
2023-04-12T15:55:36.001Z,65
2023-04-12T16:01:29.969Z,64.9
2023-04-12T16:07:25.077Z,64.9
2023-04-12T16:13:00.662Z,64.8
2023-04-12T16:18:52.437Z,64.8
2023-04-12T16:24:29.198Z,64.7
2023-04-12T16:30:20.932Z,64.6
2023-04-12T16:35:59.821Z,64.6
2023-04-12T16:41:52.162Z,64.6
2023-04-12T16:47:44.029Z,64.4
2023-04-12T16:53:38.615Z,64.4
2023-04-12T16:59:30.448Z,64.3
2023-04-12T17:05:23.109Z,64.3
2023-04-12T17:11:15.227Z,64.3
2023-04-12T17:17:07.754Z,64.2
2023-04-12T17:23:01.062Z,64.1
2023-04-12T17:28:54.270Z,64.1
2023-04-12T17:34:47.143Z,64
2023-04-12T17:40:26.049Z,63.9
2023-04-12T17:46:18.678Z,63.9
2023-04-12T17:52:10.953Z,63.8
2023-04-12T17:58:02.126Z,63.8
2023-04-12T18:03:56.014Z,63.7
2023-04-12T18:09:48.465Z,63.6
2023-04-12T18:15:40.764Z,63.6
2023-04-12T18:21:33.162Z,63.6
2023-04-12T18:27:27.620Z,63.5
2023-04-12T18:33:20.150Z,63.4
2023-04-12T18:39:11.888Z,63.4
2023-04-12T18:45:04.229Z,63.3
2023-04-12T18:50:56.067Z,63.3
2023-04-12T18:56:35.028Z,63.2
2023-04-12T19:02:48.531Z,63.1
2023-04-12T19:08:43.018Z,63.1
2023-04-12T19:14:36.358Z,63.1
2023-04-12T19:20:29.293Z,63
2023-04-12T19:26:25.309Z,62.9
2023-04-12T19:32:18.946Z,62.9
2023-04-12T19:38:15.408Z,62.8
2023-04-12T19:44:10.730Z,62.8
2023-04-12T19:50:04.799Z,62.7
2023-04-12T19:55:58.278Z,62.6
2023-04-12T20:01:51.428Z,62.6
2023-04-12T20:07:45.220Z,62.5
2023-04-12T20:13:37.805Z,62.5
2023-04-12T20:19:16.031Z,62.4
2023-04-12T20:25:08.322Z,62.4
2023-04-12T20:31:00.626Z,62.3
2023-04-12T20:36:52.426Z,62.3
2023-04-12T20:42:44.499Z,62.3
2023-04-12T20:48:37.995Z,62.1
2023-04-12T20:54:30.552Z,62.1
2023-04-12T21:00:24.888Z,62.1
2023-04-12T21:07:56.167Z,62
2023-04-12T21:13:31.966Z,61.9
2023-04-12T21:19:23.588Z,61.9
2023-04-12T21:25:14.376Z,61.8
2023-04-12T21:31:06.022Z,61.8
2023-04-12T21:36:57.886Z,61.7
2023-04-12T21:42:49.288Z,61.6
2023-04-12T21:48:41.113Z,61.6
2023-04-12T21:54:36.291Z,61.5
2023-04-12T22:00:30.012Z,61.4
2023-04-12T22:06:20.090Z,61.4
2023-04-12T22:11:56.076Z,61.4
2023-04-12T22:17:47.852Z,61.3
2023-04-12T22:23:23.714Z,61.2
2023-04-12T22:29:00.750Z,61.2
2023-04-12T22:34:37.271Z,61.1
2023-04-12T22:40:43.183Z,61.1
2023-04-12T22:46:34.952Z,61
2023-04-12T22:52:26.194Z,60.9
2023-04-12T22:58:17.721Z,60.9
2023-04-12T23:04:13.775Z,60.8
2023-04-12T23:10:04.536Z,60.8
2023-04-12T23:15:40.387Z,60.8
2023-04-12T23:21:17.106Z,60.7
2023-04-12T23:27:08.728Z,60.6
2023-04-12T23:32:45.559Z,60.6
2023-04-12T23:38:37.010Z,60.5
2023-04-12T23:44:27.793Z,60.4
2023-04-12T23:50:19.446Z,60.4
2023-04-12T23:56:11.338Z,60.4
